sensor_id;sensor_type;location;lat;lon;timestamp;P1;durP1;ratioP1;P2;durP2;ratioP2
66727;SDS011;53641;44.274;19.890;2023-12-20T10:30:59;131.73;;;65.85;;
66727;SDS011;53641;44.274;19.890;2023-12-20T10:33:26;122.63;;;60.13;;
66727;SDS011;53641;44.274;19.890;2023-12-20T10:35:53;114.55;;;55.75;;
66727;SDS011;53641;44.274;19.890;2023-12-20T10:38:20;107.68;;;51.88;;
66727;SDS011;53641;44.274;19.890;2023-12-20T10:40:56;112.20;;;55.13;;
66727;SDS011;53641;44.274;19.890;2023-12-20T10:43:24;117.53;;;54.05;;
66727;SDS011;53641;44.274;19.890;2023-12-20T10:45:53;114.95;;;54.28;;
66727;SDS011;53641;44.274;19.890;2023-12-20T10:48:21;120.80;;;56.42;;
66727;SDS011;53641;44.274;19.890;2023-12-20T10:50:52;127.50;;;55.85;;
66727;SDS011;53641;44.274;19.890;2023-12-20T10:53:18;130.93;;;55.13;;
66727;SDS011;53641;44.274;19.890;2023-12-20T10:55:45;126.60;;;60.95;;
66727;SDS011;53641;44.274;19.890;2023-12-20T10:58:12;119.90;;;57.78;;
66727;SDS011;53641;44.274;19.890;2023-12-20T11:00:39;124.40;;;58.85;;
66727;SDS011;53641;44.274;19.890;2023-12-20T11:03:06;133.10;;;63.28;;
66727;SDS011;53641;44.274;19.890;2023-12-20T11:05:59;133.48;;;67.32;;
66727;SDS011;53641;44.274;19.890;2023-12-20T11:08:22;152.55;;;72.32;;
66727;SDS011;53641;44.274;19.890;2023-12-20T11:14:02;171.85;;;78.43;;
66727;SDS011;53641;44.274;19.890;2023-12-20T11:16:26;194.95;;;92.50;;
66727;SDS011;53641;44.274;19.890;2023-12-20T11:18:52;216.10;;;99.38;;
66727;SDS011;53641;44.274;19.890;2023-12-20T11:21:18;172.88;;;91.18;;
66727;SDS011;53641;44.274;19.890;2023-12-20T11:23:44;187.75;;;91.78;;
66727;SDS011;53641;44.274;19.890;2023-12-20T11:26:11;194.80;;;92.28;;
66727;SDS011;53641;44.274;19.890;2023-12-20T11:28:37;194.10;;;93.05;;
66727;SDS011;53641;44.274;19.890;2023-12-20T11:31:06;185.75;;;89.15;;
66727;SDS011;53641;44.274;19.890;2023-12-20T11:33:37;174.20;;;81.88;;
66727;SDS011;53641;44.274;19.890;2023-12-20T11:36:07;179.55;;;82.43;;
66727;SDS011;53641;44.274;19.890;2023-12-20T11:38:38;140.45;;;69.78;;
66727;SDS011;53641;44.274;19.890;2023-12-20T11:41:07;154.73;;;72.38;;
66727;SDS011;53641;44.274;19.890;2023-12-20T11:43:36;149.63;;;67.85;;
66727;SDS011;53641;44.274;19.890;2023-12-20T11:46:07;143.88;;;66.03;;
66727;SDS011;53641;44.274;19.890;2023-12-20T11:48:39;141.38;;;68.78;;
66727;SDS011;53641;44.274;19.890;2023-12-20T11:51:09;145.23;;;67.32;;
66727;SDS011;53641;44.274;19.890;2023-12-20T11:53:36;141.87;;;64.37;;
66727;SDS011;53641;44.274;19.890;2023-12-20T11:56:03;149.75;;;68.28;;
66727;SDS011;53641;44.274;19.890;2023-12-20T11:58:29;126.22;;;64.03;;
66727;SDS011;53641;44.274;19.890;2023-12-20T12:00:56;142.55;;;67.60;;
66727;SDS011;53641;44.274;19.890;2023-12-20T12:03:22;134.18;;;64.25;;
66727;SDS011;53641;44.274;19.890;2023-12-20T12:05:49;133.30;;;59.88;;
66727;SDS011;53641;44.274;19.890;2023-12-20T12:08:19;106.88;;;52.38;;
66727;SDS011;53641;44.274;19.890;2023-12-20T12:10:45;99.68;;;47.25;;
66727;SDS011;53641;44.274;19.890;2023-12-20T12:13:12;102.60;;;47.72;;
66727;SDS011;53641;44.274;19.890;2023-12-20T12:15:39;112.43;;;49.00;;
66727;SDS011;53641;44.274;19.890;2023-12-20T12:18:07;90.80;;;42.28;;
66727;SDS011;53641;44.274;19.890;2023-12-20T12:20:33;91.47;;;42.00;;
66727;SDS011;53641;44.274;19.890;2023-12-20T12:23:03;77.18;;;40.20;;
66727;SDS011;53641;44.274;19.890;2023-12-20T12:25:30;75.15;;;36.15;;
66727;SDS011;53641;44.274;19.890;2023-12-20T12:27:59;75.18;;;36.88;;
66727;SDS011;53641;44.274;19.890;2023-12-20T12:30:26;81.90;;;36.28;;
66727;SDS011;53641;44.274;19.890;2023-12-20T12:32:52;67.70;;;31.38;;
66727;SDS011;53641;44.274;19.890;2023-12-20T12:35:19;67.55;;;31.75;;
66727;SDS011;53641;44.274;19.890;2023-12-20T12:37:45;69.57;;;33.33;;
66727;SDS011;53641;44.274;19.890;2023-12-20T12:40:12;79.70;;;35.17;;
66727;SDS011;53641;44.274;19.890;2023-12-20T12:42:39;65.35;;;34.50;;
66727;SDS011;53641;44.274;19.890;2023-12-20T12:45:09;71.90;;;33.50;;
66727;SDS011;53641;44.274;19.890;2023-12-20T12:47:36;74.13;;;35.20;;
66727;SDS011;53641;44.274;19.890;2023-12-20T12:50:03;69.05;;;32.35;;
66727;SDS011;53641;44.274;19.890;2023-12-20T12:52:32;64.35;;;32.53;;
66727;SDS011;53641;44.274;19.890;2023-12-20T12:54:58;70.60;;;31.98;;
66727;SDS011;53641;44.274;19.890;2023-12-20T12:57:25;61.75;;;30.60;;
66727;SDS011;53641;44.274;19.890;2023-12-20T12:59:51;69.13;;;31.10;;
66727;SDS011;53641;44.274;19.890;2023-12-20T13:02:17;62.47;;;30.40;;
66727;SDS011;53641;44.274;19.890;2023-12-20T13:04:43;67.55;;;32.13;;
66727;SDS011;53641;44.274;19.890;2023-12-20T13:07:10;71.60;;;33.97;;
66727;SDS011;53641;44.274;19.890;2023-12-20T13:09:36;77.90;;;36.42;;
66727;SDS011;53641;44.274;19.890;2023-12-20T13:12:03;80.65;;;37.25;;
66727;SDS011;53641;44.274;19.890;2023-12-20T13:14:33;80.40;;;36.03;;
66727;SDS011;53641;44.274;19.890;2023-12-20T13:16:59;96.07;;;48.63;;
66727;SDS011;53641;44.274;19.890;2023-12-20T13:19:26;114.43;;;52.55;;
66727;SDS011;53641;44.274;19.890;2023-12-20T13:21:52;99.00;;;47.38;;
66727;SDS011;53641;44.274;19.890;2023-12-20T13:24:19;108.80;;;49.15;;
66727;SDS011;53641;44.274;19.890;2023-12-20T13:26:45;95.88;;;45.97;;
66727;SDS011;53641;44.274;19.890;2023-12-20T13:29:11;110.93;;;52.60;;
66727;SDS011;53641;44.274;19.890;2023-12-20T13:31:37;116.60;;;54.38;;
66727;SDS011;53641;44.274;19.890;2023-12-20T13:34:05;102.97;;;52.63;;
66727;SDS011;53641;44.274;19.890;2023-12-20T13:36:31;121.13;;;59.10;;
66727;SDS011;53641;44.274;19.890;2023-12-20T13:38:57;152.65;;;71.28;;
66727;SDS011;53641;44.274;19.890;2023-12-20T13:41:23;160.90;;;75.03;;
66727;SDS011;53641;44.274;19.890;2023-12-20T13:43:49;166.18;;;76.10;;
66727;SDS011;53641;44.274;19.890;2023-12-20T13:46:34;183.82;;;87.53;;
66727;SDS011;53641;44.274;19.890;2023-12-20T13:49:05;206.85;;;93.85;;
66727;SDS011;53641;44.274;19.890;2023-12-20T13:51:34;113.35;;;52.83;;
66727;SDS011;53641;44.274;19.890;2023-12-20T13:54:03;69.15;;;33.63;;
66727;SDS011;53641;44.274;19.890;2023-12-20T13:56:29;42.10;;;20.65;;
66727;SDS011;53641;44.274;19.890;2023-12-20T13:58:56;34.85;;;15.77;;
66727;SDS011;53641;44.274;19.890;2023-12-20T14:01:22;29.33;;;13.60;;
66727;SDS011;53641;44.274;19.890;2023-12-20T14:03:49;30.75;;;14.13;;
66727;SDS011;53641;44.274;19.890;2023-12-20T14:06:18;40.47;;;15.73;;
66727;SDS011;53641;44.274;19.890;2023-12-20T14:08:47;43.08;;;16.27;;
66727;SDS011;53641;44.274;19.890;2023-12-20T14:11:14;43.53;;;16.90;;
66727;SDS011;53641;44.274;19.890;2023-12-20T14:13:40;54.83;;;19.90;;
66727;SDS011;53641;44.274;19.890;2023-12-20T14:16:07;52.22;;;18.30;;
66727;SDS011;53641;44.274;19.890;2023-12-20T14:18:33;38.83;;;15.32;;
66727;SDS011;53641;44.274;19.890;2023-12-20T14:21:17;35.80;;;13.40;;
66727;SDS011;53641;44.274;19.890;2023-12-20T14:23:45;43.55;;;15.27;;
66727;SDS011;53641;44.274;19.890;2023-12-20T14:26:12;47.72;;;16.48;;
66727;SDS011;53641;44.274;19.890;2023-12-20T14:28:43;48.58;;;18.90;;
66727;SDS011;53641;44.274;19.890;2023-12-20T14:31:09;46.85;;;17.45;;
66727;SDS011;53641;44.274;19.890;2023-12-20T14:33:35;44.13;;;15.63;;
66727;SDS011;53641;44.274;19.890;2023-12-20T14:36:06;28.00;;;12.32;;
66727;SDS011;53641;44.274;19.890;2023-12-20T14:38:32;27.30;;;12.02;;
66727;SDS011;53641;44.274;19.890;2023-12-20T14:40:59;28.65;;;12.25;;
66727;SDS011;53641;44.274;19.890;2023-12-20T14:43:25;33.97;;;13.77;;
66727;SDS011;53641;44.274;19.890;2023-12-20T14:45:52;36.30;;;15.50;;
66727;SDS011;53641;44.274;19.890;2023-12-20T14:48:18;35.70;;;16.83;;
66727;SDS011;53641;44.274;19.890;2023-12-20T14:50:47;39.13;;;16.95;;
66727;SDS011;53641;44.274;19.890;2023-12-20T14:53:14;36.80;;;16.38;;
66727;SDS011;53641;44.274;19.890;2023-12-20T14:55:41;40.58;;;17.42;;
66727;SDS011;53641;44.274;19.890;2023-12-20T14:58:08;39.55;;;17.77;;
66727;SDS011;53641;44.274;19.890;2023-12-20T15:00:34;37.08;;;17.40;;
66727;SDS011;53641;44.274;19.890;2023-12-20T15:03:00;42.70;;;20.05;;
66727;SDS011;53641;44.274;19.890;2023-12-20T15:05:26;43.83;;;20.42;;
66727;SDS011;53641;44.274;19.890;2023-12-20T15:07:52;44.72;;;21.70;;
66727;SDS011;53641;44.274;19.890;2023-12-20T15:10:18;44.17;;;22.17;;
66727;SDS011;53641;44.274;19.890;2023-12-20T15:12:45;51.55;;;24.10;;
66727;SDS011;53641;44.274;19.890;2023-12-20T15:15:11;48.20;;;22.45;;
66727;SDS011;53641;44.274;19.890;2023-12-20T15:17:38;42.90;;;22.05;;
66727;SDS011;53641;44.274;19.890;2023-12-20T15:20:04;43.95;;;21.08;;
66727;SDS011;53641;44.274;19.890;2023-12-20T15:22:30;40.70;;;19.70;;
66727;SDS011;53641;44.274;19.890;2023-12-20T15:24:59;35.88;;;17.23;;
66727;SDS011;53641;44.274;19.890;2023-12-20T15:27:26;40.45;;;19.77;;
66727;SDS011;53641;44.274;19.890;2023-12-20T15:29:52;40.55;;;18.10;;
66727;SDS011;53641;44.274;19.890;2023-12-20T15:32:22;31.60;;;15.50;;
66727;SDS011;53641;44.274;19.890;2023-12-20T15:34:48;33.05;;;16.90;;
66727;SDS011;53641;44.274;19.890;2023-12-20T15:37:17;35.70;;;17.23;;
66727;SDS011;53641;44.274;19.890;2023-12-20T15:39:45;53.65;;;22.55;;
66727;SDS011;53641;44.274;19.890;2023-12-20T15:42:12;47.72;;;21.75;;
66727;SDS011;53641;44.274;19.890;2023-12-20T15:44:38;48.10;;;21.05;;
66727;SDS011;53641;44.274;19.890;2023-12-20T15:47:04;50.22;;;22.92;;
66727;SDS011;53641;44.274;19.890;2023-12-20T15:49:30;55.88;;;23.17;;
66727;SDS011;53641;44.274;19.890;2023-12-20T15:51:57;47.47;;;24.05;;
66727;SDS011;53641;44.274;19.890;2023-12-20T15:54:23;42.72;;;20.90;;
66727;SDS011;53641;44.274;19.890;2023-12-20T15:59:22;43.40;;;19.20;;
66727;SDS011;53641;44.274;19.890;2023-12-20T16:04:16;38.47;;;18.83;;
66727;SDS011;53641;44.274;19.890;2023-12-20T16:04:55;44.33;;;20.08;;
66727;SDS011;53641;44.274;19.890;2023-12-20T16:07:21;46.25;;;21.20;;
66727;SDS011;53641;44.274;19.890;2023-12-20T16:09:47;40.47;;;18.65;;
66727;SDS011;53641;44.274;19.890;2023-12-20T16:12:13;40.60;;;17.98;;
66727;SDS011;53641;44.274;19.890;2023-12-20T16:14:39;39.97;;;18.27;;
66727;SDS011;53641;44.274;19.890;2023-12-20T16:17:05;35.72;;;17.17;;
66727;SDS011;53641;44.274;19.890;2023-12-20T16:19:31;34.03;;;16.75;;
66727;SDS011;53641;44.274;19.890;2023-12-20T16:21:58;39.10;;;17.65;;
66727;SDS011;53641;44.274;19.890;2023-12-20T16:24:24;30.20;;;15.75;;
66727;SDS011;53641;44.274;19.890;2023-12-20T16:26:52;30.45;;;15.07;;
66727;SDS011;53641;44.274;19.890;2023-12-20T16:29:19;31.67;;;16.10;;
66727;SDS011;53641;44.274;19.890;2023-12-20T16:31:45;29.35;;;15.57;;
66727;SDS011;53641;44.274;19.890;2023-12-20T16:34:11;39.13;;;17.23;;
66727;SDS011;53641;44.274;19.890;2023-12-20T16:36:50;41.58;;;17.63;;
66727;SDS011;53641;44.274;19.890;2023-12-20T16:39:20;33.83;;;17.58;;
66727;SDS011;53641;44.274;19.890;2023-12-20T16:41:46;40.78;;;18.73;;
66727;SDS011;53641;44.274;19.890;2023-12-20T16:44:12;38.00;;;17.45;;
66727;SDS011;53641;44.274;19.890;2023-12-20T16:46:39;43.15;;;19.05;;
66727;SDS011;53641;44.274;19.890;2023-12-20T16:49:06;36.95;;;17.65;;
66727;SDS011;53641;44.274;19.890;2023-12-20T16:51:32;38.42;;;18.48;;
66727;SDS011;53641;44.274;19.890;2023-12-20T16:53:59;37.35;;;18.02;;
66727;SDS011;53641;44.274;19.890;2023-12-20T16:56:25;35.58;;;19.13;;
66727;SDS011;53641;44.274;19.890;2023-12-20T16:58:51;39.25;;;18.52;;
66727;SDS011;53641;44.274;19.890;2023-12-20T17:01:20;37.40;;;18.80;;
66727;SDS011;53641;44.274;19.890;2023-12-20T17:03:53;45.70;;;20.85;;
66727;SDS011;53641;44.274;19.890;2023-12-20T17:06:19;44.13;;;21.23;;
66727;SDS011;53641;44.274;19.890;2023-12-20T17:08:46;45.83;;;21.38;;
66727;SDS011;53641;44.274;19.890;2023-12-20T17:11:12;48.05;;;22.08;;
66727;SDS011;53641;44.274;19.890;2023-12-20T17:13:38;50.80;;;23.70;;
66727;SDS011;53641;44.274;19.890;2023-12-20T17:16:04;55.70;;;24.50;;
66727;SDS011;53641;44.274;19.890;2023-12-20T17:18:31;54.58;;;26.73;;
66727;SDS011;53641;44.274;19.890;2023-12-20T17:20:57;62.90;;;27.58;;
66727;SDS011;53641;44.274;19.890;2023-12-20T17:23:23;54.88;;;27.20;;
66727;SDS011;53641;44.274;19.890;2023-12-20T17:25:49;58.30;;;26.63;;
66727;SDS011;53641;44.274;19.890;2023-12-20T17:28:16;56.47;;;26.27;;
66727;SDS011;53641;44.274;19.890;2023-12-20T17:30:42;58.03;;;27.08;;
66727;SDS011;53641;44.274;19.890;2023-12-20T17:33:08;60.60;;;25.38;;
66727;SDS011;53641;44.274;19.890;2023-12-20T17:35:34;48.35;;;23.60;;
66727;SDS011;53641;44.274;19.890;2023-12-20T17:38:00;47.92;;;21.80;;
66727;SDS011;53641;44.274;19.890;2023-12-20T17:40:27;45.50;;;21.38;;
66727;SDS011;53641;44.274;19.890;2023-12-20T17:42:53;50.80;;;22.00;;
66727;SDS011;53641;44.274;19.890;2023-12-20T17:45:21;43.75;;;20.80;;
66727;SDS011;53641;44.274;19.890;2023-12-20T17:47:47;32.85;;;17.92;;
66727;SDS011;53641;44.274;19.890;2023-12-20T17:50:13;41.75;;;20.42;;
66727;SDS011;53641;44.274;19.890;2023-12-20T17:52:39;34.13;;;18.15;;
66727;SDS011;53641;44.274;19.890;2023-12-20T17:55:06;44.60;;;19.33;;
66727;SDS011;53641;44.274;19.890;2023-12-20T17:57:32;40.80;;;18.23;;
66727;SDS011;53641;44.274;19.890;2023-12-20T18:00:15;38.88;;;19.23;;
66727;SDS011;53641;44.274;19.890;2023-12-20T18:02:42;42.53;;;18.92;;
66727;SDS011;53641;44.274;19.890;2023-12-20T18:05:08;56.20;;;24.65;;
66727;SDS011;53641;44.274;19.890;2023-12-20T18:07:34;45.83;;;22.00;;
66727;SDS011;53641;44.274;19.890;2023-12-20T18:10:00;46.70;;;21.08;;
66727;SDS011;53641;44.274;19.890;2023-12-20T18:12:26;38.00;;;16.80;;
66727;SDS011;53641;44.274;19.890;2023-12-20T18:14:52;36.80;;;17.15;;
66727;SDS011;53641;44.274;19.890;2023-12-20T18:17:19;37.22;;;17.30;;
66727;SDS011;53641;44.274;19.890;2023-12-20T18:19:45;39.50;;;16.52;;
66727;SDS011;53641;44.274;19.890;2023-12-20T18:22:12;43.55;;;20.30;;
66727;SDS011;53641;44.274;19.890;2023-12-20T18:24:38;43.45;;;19.75;;
66727;SDS011;53641;44.274;19.890;2023-12-20T18:27:06;52.00;;;22.88;;
66727;SDS011;53641;44.274;19.890;2023-12-20T18:29:32;61.63;;;28.48;;
66727;SDS011;53641;44.274;19.890;2023-12-20T18:31:59;70.65;;;29.70;;
66727;SDS011;53641;44.274;19.890;2023-12-20T18:34:25;55.40;;;25.27;;
66727;SDS011;53641;44.274;19.890;2023-12-20T18:36:51;71.97;;;30.27;;
66727;SDS011;53641;44.274;19.890;2023-12-20T18:39:20;62.03;;;28.40;;
66727;SDS011;53641;44.274;19.890;2023-12-20T18:41:46;60.50;;;28.40;;
66727;SDS011;53641;44.274;19.890;2023-12-20T18:44:15;59.83;;;28.02;;
66727;SDS011;53641;44.274;19.890;2023-12-20T18:46:43;61.85;;;27.83;;
66727;SDS011;53641;44.274;19.890;2023-12-20T18:49:10;63.20;;;28.05;;
66727;SDS011;53641;44.274;19.890;2023-12-20T18:51:36;62.90;;;27.25;;
66727;SDS011;53641;44.274;19.890;2023-12-20T18:54:02;66.63;;;29.52;;
66727;SDS011;53641;44.274;19.890;2023-12-20T18:56:28;70.70;;;30.98;;
66727;SDS011;53641;44.274;19.890;2023-12-20T18:58:54;70.78;;;30.98;;
66727;SDS011;53641;44.274;19.890;2023-12-20T19:01:21;87.85;;;34.05;;
66727;SDS011;53641;44.274;19.890;2023-12-20T19:03:47;79.75;;;31.83;;
66727;SDS011;53641;44.274;19.890;2023-12-20T19:06:16;70.03;;;27.15;;
66727;SDS011;53641;44.274;19.890;2023-12-20T19:08:42;50.75;;;22.35;;
66727;SDS011;53641;44.274;19.890;2023-12-20T19:11:09;41.95;;;19.55;;
66727;SDS011;53641;44.274;19.890;2023-12-20T19:13:35;49.42;;;20.90;;
66727;SDS011;53641;44.274;19.890;2023-12-20T19:16:01;42.30;;;18.70;;
66727;SDS011;53641;44.274;19.890;2023-12-20T19:18:28;42.25;;;18.63;;
66727;SDS011;53641;44.274;19.890;2023-12-20T19:20:54;49.10;;;19.30;;
66727;SDS011;53641;44.274;19.890;2023-12-20T19:23:20;45.13;;;17.70;;
66727;SDS011;53641;44.274;19.890;2023-12-20T19:25:46;37.28;;;16.85;;
66727;SDS011;53641;44.274;19.890;2023-12-20T19:28:12;40.20;;;17.35;;
66727;SDS011;53641;44.274;19.890;2023-12-20T19:30:39;37.08;;;15.48;;
66727;SDS011;53641;44.274;19.890;2023-12-20T19:33:05;32.72;;;15.02;;
66727;SDS011;53641;44.274;19.890;2023-12-20T19:35:31;31.70;;;15.23;;
66727;SDS011;53641;44.274;19.890;2023-12-20T19:37:57;33.60;;;15.15;;
66727;SDS011;53641;44.274;19.890;2023-12-20T19:40:24;27.88;;;13.98;;
66727;SDS011;53641;44.274;19.890;2023-12-20T19:42:50;27.55;;;11.65;;
66727;SDS011;53641;44.274;19.890;2023-12-20T19:45:16;25.25;;;13.45;;
66727;SDS011;53641;44.274;19.890;2023-12-20T19:47:49;26.73;;;11.75;;
66727;SDS011;53641;44.274;19.890;2023-12-20T19:50:15;23.85;;;11.43;;
66727;SDS011;53641;44.274;19.890;2023-12-20T19:52:41;24.08;;;11.15;;
66727;SDS011;53641;44.274;19.890;2023-12-20T19:55:08;29.02;;;11.88;;
66727;SDS011;53641;44.274;19.890;2023-12-20T19:57:34;26.90;;;11.82;;
66727;SDS011;53641;44.274;19.890;2023-12-20T20:00:00;23.92;;;11.23;;
66727;SDS011;53641;44.274;19.890;2023-12-20T20:02:27;20.42;;;9.95;;
66727;SDS011;53641;44.274;19.890;2023-12-20T20:04:53;18.98;;;9.45;;
66727;SDS011;53641;44.274;19.890;2023-12-20T20:07:19;20.85;;;10.23;;
66727;SDS011;53641;44.274;19.890;2023-12-20T20:09:48;20.85;;;10.10;;
66727;SDS011;53641;44.274;19.890;2023-12-20T20:12:15;25.17;;;11.75;;
66727;SDS011;53641;44.274;19.890;2023-12-20T20:14:41;23.25;;;10.10;;
66727;SDS011;53641;44.274;19.890;2023-12-20T20:17:07;22.42;;;9.73;;
66727;SDS011;53641;44.274;19.890;2023-12-20T20:19:33;23.70;;;9.88;;
66727;SDS011;53641;44.274;19.890;2023-12-20T20:21:59;20.15;;;9.43;;
66727;SDS011;53641;44.274;19.890;2023-12-20T20:24:25;17.60;;;8.77;;
66727;SDS011;53641;44.274;19.890;2023-12-20T20:26:51;17.77;;;7.82;;
66727;SDS011;53641;44.274;19.890;2023-12-20T20:29:18;21.02;;;9.55;;
66727;SDS011;53641;44.274;19.890;2023-12-20T20:31:44;19.95;;;9.45;;
66727;SDS011;53641;44.274;19.890;2023-12-20T20:34:10;23.77;;;9.75;;
66727;SDS011;53641;44.274;19.890;2023-12-20T20:36:39;25.50;;;11.00;;
66727;SDS011;53641;44.274;19.890;2023-12-20T20:39:05;27.17;;;11.05;;
66727;SDS011;53641;44.274;19.890;2023-12-20T20:41:31;27.58;;;11.60;;
66727;SDS011;53641;44.274;19.890;2023-12-20T20:43:57;27.35;;;10.75;;
66727;SDS011;53641;44.274;19.890;2023-12-20T20:46:23;27.42;;;11.18;;
66727;SDS011;53641;44.274;19.890;2023-12-20T20:48:52;27.48;;;12.02;;
66727;SDS011;53641;44.274;19.890;2023-12-20T20:51:18;27.55;;;11.95;;
66727;SDS011;53641;44.274;19.890;2023-12-20T20:53:45;30.08;;;12.77;;
66727;SDS011;53641;44.274;19.890;2023-12-20T20:56:11;30.23;;;11.18;;
66727;SDS011;53641;44.274;19.890;2023-12-20T20:58:37;26.45;;;11.43;;
66727;SDS011;53641;44.274;19.890;2023-12-20T21:01:03;24.27;;;11.18;;
66727;SDS011;53641;44.274;19.890;2023-12-20T21:03:30;23.17;;;10.35;;
66727;SDS011;53641;44.274;19.890;2023-12-20T21:05:57;28.25;;;11.85;;
66727;SDS011;53641;44.274;19.890;2023-12-20T21:08:23;28.58;;;11.35;;
66727;SDS011;53641;44.274;19.890;2023-12-20T21:10:49;28.55;;;11.52;;
66727;SDS011;53641;44.274;19.890;2023-12-20T21:13:22;18.70;;;8.93;;
66727;SDS011;53641;44.274;19.890;2023-12-20T21:15:48;17.25;;;9.13;;
66727;SDS011;53641;44.274;19.890;2023-12-20T21:18:14;20.17;;;8.65;;
66727;SDS011;53641;44.274;19.890;2023-12-20T21:20:40;18.45;;;7.78;;
66727;SDS011;53641;44.274;19.890;2023-12-20T21:23:06;16.80;;;7.15;;
66727;SDS011;53641;44.274;19.890;2023-12-20T21:25:38;16.67;;;8.10;;
66727;SDS011;53641;44.274;19.890;2023-12-20T21:28:04;20.45;;;8.18;;
66727;SDS011;53641;44.274;19.890;2023-12-20T21:30:31;19.08;;;7.20;;
66727;SDS011;53641;44.274;19.890;2023-12-20T21:32:59;20.17;;;9.00;;
66727;SDS011;53641;44.274;19.890;2023-12-20T21:35:25;21.55;;;8.63;;
66727;SDS011;53641;44.274;19.890;2023-12-20T21:37:51;23.77;;;8.45;;
66727;SDS011;53641;44.274;19.890;2023-12-20T21:40:18;30.63;;;11.13;;
66727;SDS011;53641;44.274;19.890;2023-12-20T21:42:44;37.55;;;15.15;;
66727;SDS011;53641;44.274;19.890;2023-12-20T21:45:11;32.05;;;13.38;;
66727;SDS011;53641;44.274;19.890;2023-12-20T21:47:37;30.30;;;13.60;;
66727;SDS011;53641;44.274;19.890;2023-12-20T21:50:03;26.08;;;11.45;;
66727;SDS011;53641;44.274;19.890;2023-12-20T21:52:30;19.63;;;8.55;;
66727;SDS011;53641;44.274;19.890;2023-12-20T21:54:57;32.65;;;11.77;;
66727;SDS011;53641;44.274;19.890;2023-12-20T21:57:23;28.80;;;12.15;;
66727;SDS011;53641;44.274;19.890;2023-12-20T21:59:49;32.50;;;12.57;;
66727;SDS011;53641;44.274;19.890;2023-12-20T22:02:15;27.83;;;11.52;;
66727;SDS011;53641;44.274;19.890;2023-12-20T22:04:41;29.85;;;12.52;;
66727;SDS011;53641;44.274;19.890;2023-12-20T22:07:07;21.60;;;9.57;;
66727;SDS011;53641;44.274;19.890;2023-12-20T22:09:33;21.10;;;10.07;;
66727;SDS011;53641;44.274;19.890;2023-12-20T22:11:59;28.05;;;11.27;;
66727;SDS011;53641;44.274;19.890;2023-12-20T22:14:27;42.20;;;16.40;;
66727;SDS011;53641;44.274;19.890;2023-12-20T22:16:54;43.08;;;15.85;;
66727;SDS011;53641;44.274;19.890;2023-12-20T22:19:21;35.17;;;14.32;;
66727;SDS011;53641;44.274;19.890;2023-12-20T22:21:47;34.80;;;14.40;;
66727;SDS011;53641;44.274;19.890;2023-12-20T22:24:13;36.10;;;13.80;;
66727;SDS011;53641;44.274;19.890;2023-12-20T22:26:39;38.53;;;18.10;;
66727;SDS011;53641;44.274;19.890;2023-12-20T22:29:05;42.58;;;16.77;;
66727;SDS011;53641;44.274;19.890;2023-12-20T22:31:31;33.30;;;15.63;;
66727;SDS011;53641;44.274;19.890;2023-12-20T22:33:57;39.50;;;16.80;;
66727;SDS011;53641;44.274;19.890;2023-12-20T22:36:23;43.45;;;16.45;;
66727;SDS011;53641;44.274;19.890;2023-12-20T22:38:49;44.30;;;17.38;;
66727;SDS011;53641;44.274;19.890;2023-12-20T22:41:18;38.90;;;17.50;;
66727;SDS011;53641;44.274;19.890;2023-12-20T22:43:44;46.67;;;20.45;;
66727;SDS011;53641;44.274;19.890;2023-12-20T22:46:10;48.30;;;20.10;;
66727;SDS011;53641;44.274;19.890;2023-12-20T22:48:36;52.00;;;20.42;;
66727;SDS011;53641;44.274;19.890;2023-12-20T22:51:02;46.40;;;19.95;;
66727;SDS011;53641;44.274;19.890;2023-12-20T22:53:28;50.50;;;21.88;;
66727;SDS011;53641;44.274;19.890;2023-12-20T22:55:55;47.60;;;20.67;;
66727;SDS011;53641;44.274;19.890;2023-12-20T22:58:21;48.30;;;21.52;;
66727;SDS011;53641;44.274;19.890;2023-12-20T23:00:47;56.35;;;21.73;;
66727;SDS011;53641;44.274;19.890;2023-12-20T23:03:13;49.58;;;20.45;;
66727;SDS011;53641;44.274;19.890;2023-12-20T23:05:39;58.05;;;23.52;;
66727;SDS011;53641;44.274;19.890;2023-12-20T23:08:06;61.35;;;26.42;;
66727;SDS011;53641;44.274;19.890;2023-12-20T23:10:32;83.85;;;32.90;;
66727;SDS011;53641;44.274;19.890;2023-12-20T23:12:59;96.40;;;36.92;;
66727;SDS011;53641;44.274;19.890;2023-12-20T23:15:26;106.78;;;38.95;;
66727;SDS011;53641;44.274;19.890;2023-12-20T23:17:52;105.18;;;38.95;;
66727;SDS011;53641;44.274;19.890;2023-12-20T23:20:20;109.88;;;43.10;;
66727;SDS011;53641;44.274;19.890;2023-12-20T23:22:46;104.47;;;39.75;;
66727;SDS011;53641;44.274;19.890;2023-12-20T23:25:12;88.18;;;33.40;;
66727;SDS011;53641;44.274;19.890;2023-12-20T23:27:39;67.90;;;27.15;;
66727;SDS011;53641;44.274;19.890;2023-12-20T23:30:07;74.93;;;27.85;;
66727;SDS011;53641;44.274;19.890;2023-12-20T23:32:33;61.58;;;25.83;;
66727;SDS011;53641;44.274;19.890;2023-12-20T23:34:59;73.53;;;29.75;;
66727;SDS011;53641;44.274;19.890;2023-12-20T23:37:25;80.95;;;28.60;;
66727;SDS011;53641;44.274;19.890;2023-12-20T23:39:51;83.45;;;33.38;;
66727;SDS011;53641;44.274;19.890;2023-12-20T23:42:17;67.30;;;27.08;;
66727;SDS011;53641;44.274;19.890;2023-12-20T23:44:44;59.38;;;25.42;;
66727;SDS011;53641;44.274;19.890;2023-12-20T23:47:10;64.38;;;26.55;;
66727;SDS011;53641;44.274;19.890;2023-12-20T23:49:36;52.70;;;19.92;;
66727;SDS011;53641;44.274;19.890;2023-12-20T23:52:03;48.35;;;20.58;;
66727;SDS011;53641;44.274;19.890;2023-12-20T23:54:29;41.80;;;19.08;;
66727;SDS011;53641;44.274;19.890;2023-12-20T23:56:56;46.78;;;18.70;;
66727;SDS011;53641;44.274;19.890;2023-12-20T23:59:22;42.75;;;17.23;;
